Accueil
METAR-TAF:

METAR-TAF

Aéroports :

Friedrichshafen, Allemagne

Aéroport de Friedrichshafen

latitude: 47-40N, longitude: 009-31E, altitude: 416 m

Observation

Le bulletin a été fait il y a 32 minutes, à 09:50 UTC
Vent 17 kt de nord/nord-est
Température -1°C
Humidité 69%
Pression 1014 hPa
Visibilité 10 km ou plus
Ciel couvert à une hauteur de 2000 ft

METAR: EDNY 240950Z 03017KT 9999 OVC020 M01/M06 Q1014

Heure: 11:22 (10:22 UTC)

Prévision

Le bulletin a été fait il y a 5 heures et 22 minutes, à 05:00 UTC
Prévision valable du 24 à 06 UTC au 25 à 06 UTC
Vent 12 kt de nord/nord-est avec des rafales jusqu'à 25 kt
Visibilité 10 km ou plus
Nuages fragmentés à une hauteur de 2000 ft

TAF: EDNY 240500Z 2406/2506 03012G25KT 9999 BKN020

Observations et prévisions météorologiques de plus de 4000 aéroports (messages METAR et TAF).

Les stations disponibles sont représentées par des disques jaunes et rouges sur la carte.

Passer la souris dessus pour voir le nom de la station.

Cliquer dessus pour voir les observations et prévisions météorologiques.

Pour changer de carte: cliquez sur les boutons verts avec une croix noire pour zoomer, sur le bouton vert avec un tiret pour effectuer un zoom arrière, ou sur les flèches vertes pour les cartes adjacentes.


METAR-TAF: